createdAt,value
2023-04-19T00:01:28.319Z,7.84
2023-04-19T00:03:55.989Z,7.80
2023-04-19T00:06:23.443Z,7.76
2023-04-19T00:08:49.860Z,7.73
2023-04-19T00:11:16.362Z,7.70
2023-04-19T00:13:42.799Z,7.70
2023-04-19T00:16:09.356Z,7.66
2023-04-19T00:18:36.412Z,7.63
2023-04-19T00:21:03.027Z,7.61
2023-04-19T00:23:29.508Z,7.61
2023-04-19T00:25:56.004Z,7.57
2023-04-19T00:28:22.523Z,7.53
2023-04-19T00:30:48.970Z,7.52
2023-04-19T00:33:15.458Z,7.48
2023-04-19T00:35:42.252Z,7.43
2023-04-19T00:38:08.899Z,7.37
2023-04-19T00:40:36.704Z,7.33
2023-04-19T00:43:03.209Z,7.30
2023-04-19T00:45:29.767Z,7.23
2023-04-19T00:47:56.378Z,7.19
2023-04-19T00:50:22.985Z,7.14
2023-04-19T00:52:49.563Z,7.07
2023-04-19T00:55:16.341Z,7.07
2023-04-19T00:57:43.118Z,7.05
2023-04-19T01:00:10.105Z,7.00
2023-04-19T01:02:36.749Z,6.99
2023-04-19T01:05:03.484Z,7.00
2023-04-19T01:07:30.017Z,7.01
2023-04-19T01:09:56.413Z,7.04
2023-04-19T01:12:23.201Z,7.05
2023-04-19T01:14:50.520Z,7.08
2023-04-19T01:17:18.837Z,7.10
2023-04-19T01:19:46.074Z,7.16
2023-04-19T01:22:19.211Z,7.20
2023-04-19T01:24:45.723Z,7.22
2023-04-19T01:27:14.006Z,7.26
2023-04-19T01:29:40.917Z,7.30
2023-04-19T01:32:07.917Z,7.32
2023-04-19T01:34:34.599Z,7.34
2023-04-19T01:37:01.099Z,7.37
2023-04-19T01:39:27.679Z,7.38
2023-04-19T01:41:54.071Z,7.42
2023-04-19T01:44:20.507Z,7.46
2023-04-19T01:46:46.992Z,7.51
2023-04-19T01:49:13.455Z,7.55
2023-04-19T01:51:40.026Z,7.59
2023-04-19T01:54:06.470Z,7.61
2023-04-19T01:56:33.218Z,7.64
2023-04-19T01:58:59.717Z,7.66
2023-04-19T02:01:26.236Z,7.72
2023-04-19T02:03:52.962Z,7.75
2023-04-19T02:06:19.672Z,7.81
2023-04-19T02:08:46.121Z,7.84
2023-04-19T02:11:16.709Z,7.85
2023-04-19T02:13:43.381Z,7.89
2023-04-19T02:16:10.627Z,7.91
2023-04-19T02:18:38.552Z,7.92
2023-04-19T02:21:06.408Z,7.95
2023-04-19T02:23:33.046Z,7.98
2023-04-19T02:26:01.438Z,8.03
2023-04-19T02:28:27.940Z,8.07
2023-04-19T02:30:54.339Z,8.06
2023-04-19T02:33:22.397Z,8.07
2023-04-19T02:35:49.741Z,8.09
2023-04-19T02:38:16.465Z,8.14
2023-04-19T02:40:42.965Z,8.14
2023-04-19T02:43:09.388Z,8.15
2023-04-19T02:45:36.326Z,8.17
2023-04-19T02:48:02.946Z,8.19
2023-04-19T02:50:29.453Z,8.20
2023-04-19T02:52:55.932Z,8.19
2023-04-19T02:55:22.405Z,8.19
2023-04-19T02:57:49.003Z,8.20
2023-04-19T03:00:16.217Z,8.21
2023-04-19T03:02:44.135Z,8.22
2023-04-19T03:05:10.846Z,8.22
2023-04-19T03:07:37.314Z,8.22
2023-04-19T03:10:04.116Z,8.23
2023-04-19T03:12:30.633Z,8.25
2023-04-19T03:14:57.113Z,8.27
2023-04-19T03:17:23.530Z,8.27
2023-04-19T03:19:50.148Z,8.28
2023-04-19T03:22:16.647Z,8.28
2023-04-19T03:24:43.091Z,8.31
2023-04-19T03:27:09.616Z,8.32
2023-04-19T03:29:36.158Z,8.34
2023-04-19T03:32:02.551Z,8.39
2023-04-19T03:34:29.029Z,8.38
2023-04-19T03:36:55.867Z,8.41
2023-04-19T03:39:22.349Z,8.42
2023-04-19T03:41:48.769Z,8.40
2023-04-19T03:44:15.660Z,8.41
2023-04-19T03:46:42.289Z,8.42
2023-04-19T03:49:08.767Z,8.38
2023-04-19T03:51:35.376Z,8.35
2023-04-19T03:54:01.800Z,8.27
2023-04-19T03:56:28.305Z,8.17
2023-04-19T03:58:54.703Z,8.07
2023-04-19T04:01:22.277Z,8.02
2023-04-19T04:03:49.342Z,7.93
2023-04-19T04:06:16.239Z,7.89
2023-04-19T04:08:42.781Z,7.85
2023-04-19T04:11:09.573Z,7.83
2023-04-19T04:13:36.102Z,7.81
2023-04-19T04:16:02.572Z,7.79
2023-04-19T04:18:29.070Z,7.81
2023-04-19T04:20:55.682Z,7.81
2023-04-19T04:23:22.778Z,7.78
2023-04-19T04:25:57.995Z,7.75
2023-04-19T04:28:24.467Z,7.73
2023-04-19T04:30:51.960Z,7.69
2023-04-19T04:33:18.585Z,7.68
2023-04-19T04:35:45.163Z,7.64
2023-04-19T04:38:23.624Z,7.58
2023-04-19T04:40:55.617Z,7.54
2023-04-19T04:43:28.906Z,7.53
2023-04-19T04:45:57.815Z,7.48
2023-04-19T04:48:25.002Z,7.45
2023-04-19T04:50:51.478Z,7.41
2023-04-19T04:53:17.942Z,7.38
2023-04-19T04:55:44.678Z,7.36
2023-04-19T04:58:11.135Z,7.33
2023-04-19T05:00:37.588Z,7.31
2023-04-19T05:03:04.157Z,7.29
2023-04-19T05:05:30.849Z,7.26
2023-04-19T05:07:57.353Z,7.25
2023-04-19T05:10:23.769Z,7.29
2023-04-19T05:12:50.231Z,7.31
2023-04-19T05:15:16.719Z,7.32
2023-04-19T05:17:43.439Z,7.31
2023-04-19T05:20:10.485Z,7.31
2023-04-19T05:22:37.613Z,7.29
2023-04-19T05:25:04.683Z,7.31
2023-04-19T05:27:31.123Z,7.31
2023-04-19T05:29:57.563Z,7.31
2023-04-19T05:32:24.008Z,7.33
2023-04-19T05:34:50.544Z,7.35
2023-04-19T05:37:16.942Z,7.39
2023-04-19T05:39:44.648Z,7.41
2023-04-19T05:42:12.480Z,7.48
2023-04-19T05:44:38.905Z,7.53
2023-04-19T05:47:05.447Z,7.61
2023-04-19T05:49:31.905Z,7.74
2023-04-19T05:51:58.355Z,7.87
2023-04-19T05:54:24.829Z,7.95
2023-04-19T05:56:51.277Z,8.00
2023-04-19T05:59:17.814Z,8.05
2023-04-19T06:01:45.117Z,8.14
2023-04-19T06:04:11.795Z,8.28
2023-04-19T06:06:38.376Z,8.40
2023-04-19T06:09:04.963Z,8.48
2023-04-19T06:11:38.947Z,8.52
2023-04-19T06:14:10.595Z,8.55
2023-04-19T06:16:37.218Z,8.61
2023-04-19T06:19:03.751Z,8.71
2023-04-19T06:21:31.643Z,8.81
2023-04-19T06:23:58.317Z,8.86
2023-04-19T06:26:24.972Z,8.90
2023-04-19T06:28:51.534Z,8.92
2023-04-19T06:31:18.006Z,8.88
2023-04-19T06:33:44.516Z,8.84
2023-04-19T06:36:10.882Z,8.85
2023-04-19T06:38:38.499Z,8.82
2023-04-19T06:41:05.454Z,8.79
2023-04-19T06:43:31.882Z,8.78
2023-04-19T06:45:59.566Z,8.80
2023-04-19T06:48:26.457Z,8.85
2023-04-19T06:50:53.101Z,8.86
2023-04-19T06:53:19.846Z,8.87
2023-04-19T06:55:46.678Z,8.87
2023-04-19T06:58:13.231Z,8.92
2023-04-19T07:00:39.721Z,8.97
2023-04-19T07:03:06.361Z,9.04
2023-04-19T07:05:32.962Z,9.10
2023-04-19T07:07:59.386Z,9.18
2023-04-19T07:10:25.855Z,9.24
2023-04-19T07:12:52.402Z,9.29
2023-04-19T07:15:18.863Z,9.24
2023-04-19T07:17:45.378Z,9.25
2023-04-19T07:20:11.889Z,9.35
2023-04-19T07:22:38.436Z,9.42
2023-04-19T07:25:05.136Z,9.48
2023-04-19T07:27:31.599Z,9.42
2023-04-19T07:29:58.073Z,9.41
2023-04-19T07:32:24.685Z,9.44
2023-04-19T07:34:51.767Z,9.49
2023-04-19T07:37:18.281Z,9.54
2023-04-19T07:39:44.764Z,9.58
2023-04-19T07:42:11.384Z,9.56
2023-04-19T07:44:37.878Z,9.55
2023-04-19T07:47:05.922Z,9.56
2023-04-19T07:49:34.270Z,9.55
2023-04-19T07:52:01.920Z,9.60
2023-04-19T07:54:28.915Z,9.65
2023-04-19T07:56:55.379Z,9.62
2023-04-19T07:59:22.043Z,9.73
2023-04-19T08:01:49.677Z,9.78
2023-04-19T08:04:18.424Z,9.84
2023-04-19T08:06:45.679Z,10.03
2023-04-19T08:09:12.162Z,10.16
2023-04-19T08:11:38.589Z,10.22
2023-04-19T08:14:15.176Z,10.27
2023-04-19T08:19:17.929Z,10.32
2023-04-19T08:21:44.402Z,10.35
2023-04-19T08:24:11.002Z,10.33
2023-04-19T08:26:39.108Z,10.39
2023-04-19T08:29:05.633Z,10.45
2023-04-19T08:31:32.506Z,10.43
2023-04-19T08:34:00.234Z,10.54
2023-04-19T08:36:39.061Z,10.60
2023-04-19T08:39:18.017Z,10.72
2023-04-19T08:42:06.610Z,10.79
2023-04-19T08:44:51.007Z,10.56
2023-04-19T08:47:32.197Z,10.65
2023-04-19T08:50:16.792Z,10.70
2023-04-19T08:52:54.974Z,10.85
2023-04-19T08:55:25.953Z,10.87
2023-04-19T08:57:52.660Z,10.84
2023-04-19T09:00:19.685Z,10.62
2023-04-19T09:02:48.420Z,10.64
2023-04-19T09:05:18.134Z,10.63
2023-04-19T09:07:46.513Z,10.61
2023-04-19T09:10:16.259Z,10.76
2023-04-19T09:12:43.172Z,10.97
2023-04-19T09:15:10.928Z,11.08
2023-04-19T09:17:39.138Z,11.20
2023-04-19T09:20:06.715Z,11.34
2023-04-19T09:22:33.968Z,11.39
2023-04-19T09:27:33.364Z,11.31
2023-04-19T09:30:01.526Z,11.39
2023-04-19T09:32:29.160Z,11.43
2023-04-19T09:35:00.184Z,11.49
2023-04-19T09:39:57.000Z,11.54
2023-04-19T09:42:42.417Z,11.47
2023-04-19T09:45:28.465Z,11.47
2023-04-19T09:48:04.911Z,11.36
2023-04-19T09:50:32.245Z,11.50
2023-04-19T09:53:00.252Z,11.57
2023-04-19T09:55:28.837Z,11.54
2023-04-19T09:57:56.782Z,11.52
2023-04-19T10:00:23.635Z,11.70
2023-04-19T10:02:58.443Z,11.75
2023-04-19T10:05:26.413Z,11.85
2023-04-19T10:07:59.298Z,11.77
2023-04-19T10:10:41.319Z,11.88
2023-04-19T10:13:20.283Z,11.93
2023-04-19T10:15:53.637Z,11.92
2023-04-19T10:18:24.276Z,12.04
2023-04-19T10:21:01.966Z,12.33
2023-04-19T10:23:29.268Z,12.34
2023-04-19T10:25:57.778Z,12.17
2023-04-19T10:28:24.461Z,12.24
2023-04-19T10:30:57.291Z,12.22
2023-04-19T10:33:29.518Z,12.16
2023-04-19T10:35:57.896Z,12.42
2023-04-19T10:38:49.390Z,12.41
2023-04-19T10:41:18.491Z,12.30
2023-04-19T10:43:58.186Z,12.43
2023-04-19T10:46:25.886Z,12.67
2023-04-19T10:48:54.962Z,12.92
2023-04-19T10:51:47.484Z,12.93
2023-04-19T10:54:31.320Z,12.84
2023-04-19T10:57:06.105Z,12.83
2023-04-19T10:59:34.562Z,12.96
2023-04-19T11:02:05.510Z,13.08
2023-04-19T11:04:32.287Z,13.14
2023-04-19T11:07:01.587Z,12.92
2023-04-19T11:09:31.428Z,13.01
2023-04-19T11:12:01.219Z,13.09
2023-04-19T11:14:31.793Z,13.15
2023-04-19T11:16:58.758Z,13.24
2023-04-19T11:19:25.364Z,13.17
2023-04-19T11:21:51.801Z,13.15
2023-04-19T11:24:21.340Z,13.16
2023-04-19T11:26:52.104Z,13.37
2023-04-19T11:29:21.933Z,13.51
2023-04-19T11:31:48.629Z,13.48
2023-04-19T11:34:15.482Z,13.81
2023-04-19T11:36:52.460Z,13.79
2023-04-19T11:39:19.108Z,13.72
2023-04-19T11:41:47.373Z,13.91
2023-04-19T11:44:14.990Z,14.12
2023-04-19T11:46:42.392Z,14.37
2023-04-19T11:49:08.922Z,14.30
2023-04-19T11:51:35.478Z,14.27
2023-04-19T11:54:02.026Z,14.27
2023-04-19T11:56:28.533Z,14.38
2023-04-19T11:58:57.830Z,14.25
2023-04-19T12:01:25.879Z,14.20
2023-04-19T12:03:54.410Z,14.30
2023-04-19T12:06:29.080Z,14.30
2023-04-19T12:08:56.619Z,14.32
2023-04-19T12:11:24.904Z,14.28
2023-04-19T12:14:11.771Z,14.43
2023-04-19T12:16:38.900Z,14.67
2023-04-19T12:19:15.631Z,14.58
2023-04-19T12:21:42.242Z,14.65
2023-04-19T12:24:08.916Z,14.54
2023-04-19T12:26:36.078Z,14.42
2023-04-19T12:29:03.651Z,14.44
2023-04-19T12:31:33.678Z,14.56
2023-04-19T12:34:00.271Z,14.70
2023-04-19T12:36:26.838Z,14.89
2023-04-19T12:38:53.390Z,14.90
2023-04-19T12:41:19.800Z,14.94
2023-04-19T12:43:46.235Z,14.93
2023-04-19T12:46:12.785Z,15.04
2023-04-19T12:48:39.753Z,15.13
2023-04-19T12:51:06.204Z,15.13
2023-04-19T12:53:33.055Z,15.03
2023-04-19T12:55:59.453Z,15.04
2023-04-19T12:58:28.040Z,15.19
2023-04-19T13:00:54.489Z,15.18
2023-04-19T13:03:21.168Z,15.19
2023-04-19T13:05:49.030Z,15.09
2023-04-19T13:08:15.838Z,15.12
2023-04-19T13:10:42.283Z,15.30
2023-04-19T13:13:08.686Z,15.30
2023-04-19T13:15:35.362Z,15.37
2023-04-19T13:18:01.932Z,15.59
2023-04-19T13:20:29.113Z,15.79
2023-04-19T13:22:55.577Z,15.74
2023-04-19T13:25:22.348Z,15.77
2023-04-19T13:27:48.826Z,15.73
2023-04-19T13:30:15.686Z,15.72
2023-04-19T13:32:42.209Z,15.72
2023-04-19T13:35:09.191Z,15.80
2023-04-19T13:37:35.762Z,15.81
2023-04-19T13:40:17.544Z,15.84
2023-04-19T13:42:45.582Z,15.88
2023-04-19T13:45:12.221Z,15.90
2023-04-19T13:47:38.767Z,15.88
2023-04-19T13:50:05.720Z,15.69
2023-04-19T13:52:32.337Z,15.67
2023-04-19T13:54:58.759Z,15.73
2023-04-19T13:57:25.474Z,15.89
2023-04-19T13:59:51.980Z,15.98
2023-04-19T14:02:18.733Z,15.88
2023-04-19T14:04:45.269Z,15.96
2023-04-19T14:07:11.925Z,15.95
2023-04-19T14:09:38.393Z,15.94
2023-04-19T14:12:05.177Z,16.04
2023-04-19T14:14:32.510Z,16.08
2023-04-19T14:16:59.052Z,16.01
2023-04-19T14:19:25.559Z,15.89
2023-04-19T14:21:52.030Z,15.97
2023-04-19T14:24:18.703Z,16.17
2023-04-19T14:26:45.351Z,16.13
2023-04-19T14:29:11.891Z,16.24
2023-04-19T14:31:38.488Z,16.33
2023-04-19T14:34:05.182Z,16.25
2023-04-19T14:36:31.788Z,16.24
2023-04-19T14:38:58.240Z,16.16
2023-04-19T14:41:25.256Z,16.19
2023-04-19T14:43:52.109Z,16.33
2023-04-19T14:46:18.713Z,16.38
2023-04-19T14:48:45.269Z,16.37
2023-04-19T14:51:11.745Z,16.21
2023-04-19T14:53:38.141Z,16.11
2023-04-19T14:56:05.863Z,15.84
2023-04-19T14:58:32.361Z,15.80
2023-04-19T15:00:59.152Z,16.07
2023-04-19T15:03:26.033Z,16.17
2023-04-19T15:05:52.810Z,16.22
2023-04-19T15:08:30.129Z,16.14
2023-04-19T15:10:57.395Z,16.11
2023-04-19T15:13:24.075Z,16.07
2023-04-19T15:15:51.272Z,16.01
2023-04-19T15:18:17.876Z,16.04
2023-04-19T15:20:44.416Z,16.01
2023-04-19T15:23:10.924Z,15.87
2023-04-19T15:25:37.378Z,15.67
2023-04-19T15:28:04.058Z,15.67
2023-04-19T15:30:30.555Z,15.73
2023-04-19T15:32:57.116Z,15.79
2023-04-19T15:35:23.646Z,15.71
2023-04-19T15:37:50.114Z,15.71
2023-04-19T15:40:17.205Z,15.59
2023-04-19T15:42:43.931Z,15.57
2023-04-19T15:45:10.743Z,15.64
2023-04-19T15:47:37.327Z,15.66
2023-04-19T15:50:04.629Z,15.70
2023-04-19T15:52:31.417Z,15.66
2023-04-19T15:54:57.877Z,15.48
2023-04-19T15:57:24.332Z,15.07
2023-04-19T15:59:50.866Z,15.05
2023-04-19T16:02:17.608Z,15.00
2023-04-19T16:04:47.982Z,14.91
2023-04-19T16:07:14.623Z,14.87
2023-04-19T16:09:41.172Z,14.93
2023-04-19T16:12:07.660Z,14.91
2023-04-19T16:14:34.141Z,14.90
2023-04-19T16:17:01.108Z,14.90
2023-04-19T16:19:27.540Z,14.95
2023-04-19T16:21:54.018Z,14.81
2023-04-19T16:24:20.562Z,14.69
2023-04-19T16:26:46.986Z,14.73
2023-04-19T16:29:13.577Z,14.62
2023-04-19T16:31:40.098Z,14.55
2023-04-19T16:34:06.514Z,14.45
2023-04-19T16:36:32.994Z,14.44
2023-04-19T16:39:00.555Z,14.53
2023-04-19T16:41:27.012Z,14.43
2023-04-19T16:43:55.485Z,14.39
2023-04-19T16:46:22.635Z,14.25
2023-04-19T16:48:49.170Z,14.13
2023-04-19T16:51:15.795Z,14.09
2023-04-19T16:53:43.560Z,14.04
2023-04-19T16:56:10.093Z,13.97
2023-04-19T16:58:36.751Z,13.97
2023-04-19T17:01:03.513Z,13.92
2023-04-19T17:03:33.175Z,13.84
2023-04-19T17:06:00.543Z,13.84
2023-04-19T17:08:27.081Z,13.80
2023-04-19T17:10:53.514Z,13.75
2023-04-19T17:13:20.094Z,13.71
2023-04-19T17:15:46.632Z,13.69
2023-04-19T17:18:13.172Z,13.63
2023-04-19T17:20:39.738Z,13.60
2023-04-19T17:23:06.419Z,13.56
2023-04-19T17:25:32.886Z,13.43
2023-04-19T17:27:59.354Z,13.36
2023-04-19T17:30:26.263Z,13.28
2023-04-19T17:32:52.943Z,13.20
2023-04-19T17:35:19.489Z,13.10
2023-04-19T17:37:46.266Z,13.04
2023-04-19T17:40:12.875Z,13.00
2023-04-19T17:42:39.293Z,12.92
2023-04-19T17:45:10.814Z,12.80
2023-04-19T17:47:38.573Z,12.74
2023-04-19T17:50:07.489Z,12.70
2023-04-19T17:52:34.553Z,12.69
2023-04-19T17:55:02.371Z,12.65
2023-04-19T17:57:29.860Z,12.56
2023-04-19T17:59:56.389Z,12.50
2023-04-19T18:02:23.842Z,12.42
2023-04-19T18:04:50.514Z,12.38
2023-04-19T18:07:17.180Z,12.30
2023-04-19T18:09:43.728Z,12.21
2023-04-19T18:12:10.215Z,12.07
2023-04-19T18:14:36.683Z,12.00
2023-04-19T18:17:05.461Z,11.99
2023-04-19T18:19:32.052Z,11.99
2023-04-19T18:21:58.542Z,11.95
2023-04-19T18:24:24.964Z,11.86
2023-04-19T18:26:52.807Z,11.78
2023-04-19T18:29:20.834Z,11.81
2023-04-19T18:31:47.315Z,11.75
2023-04-19T18:34:13.905Z,11.65
2023-04-19T18:36:40.372Z,11.58
2023-04-19T18:39:07.231Z,11.51
2023-04-19T18:41:33.747Z,11.46
2023-04-19T18:44:30.050Z,11.38
2023-04-19T18:46:46.751Z,11.29
2023-04-19T18:49:13.202Z,11.29
2023-04-19T18:51:39.652Z,11.21
2023-04-19T18:54:06.297Z,11.16
2023-04-19T18:57:11.090Z,11.09
2023-04-19T18:59:19.471Z,10.91
2023-04-19T19:01:46.050Z,10.83
2023-04-19T19:04:37.311Z,10.79
2023-04-19T19:07:18.009Z,10.69
2023-04-19T19:09:55.281Z,10.53
2023-04-19T19:12:22.855Z,10.43
2023-04-19T19:14:49.259Z,10.34
2023-04-19T19:17:15.919Z,10.23
2023-04-19T19:19:42.430Z,10.21
2023-04-19T19:22:22.354Z,10.16
2023-04-19T19:24:52.099Z,10.13
2023-04-19T19:27:18.604Z,10.08
2023-04-19T19:29:46.759Z,10.08
2023-04-19T19:32:14.154Z,10.04
2023-04-19T19:34:51.852Z,9.92
2023-04-19T19:37:21.823Z,9.86
2023-04-19T19:39:48.336Z,9.74
2023-04-19T19:42:18.130Z,9.70
2023-04-19T19:44:44.829Z,9.66
2023-04-19T19:47:11.865Z,9.59
2023-04-19T19:52:08.034Z,9.58
2023-04-19T19:54:34.665Z,9.61
2023-04-19T19:59:34.568Z,9.59
2023-04-19T20:02:02.282Z,9.57
2023-04-19T20:04:29.540Z,9.59
2023-04-19T20:09:27.902Z,9.64
2023-04-19T20:11:54.470Z,9.64
2023-04-19T20:14:23.331Z,9.54
2023-04-19T20:16:50.267Z,9.54
2023-04-19T20:19:16.994Z,9.60
2023-04-19T20:21:43.980Z,9.54
2023-04-19T20:24:10.475Z,9.44
2023-04-19T20:26:36.874Z,9.34
2023-04-19T20:29:03.329Z,9.31
2023-04-19T20:31:30.409Z,9.28
2023-04-19T20:33:57.302Z,9.22
2023-04-19T20:36:24.608Z,9.12
2023-04-19T20:38:51.225Z,9.06
2023-04-19T20:41:18.807Z,9.02
2023-04-19T20:43:45.311Z,9.00
2023-04-19T20:46:11.914Z,9.00
2023-04-19T20:48:38.395Z,8.95
2023-04-19T20:51:04.809Z,8.93
2023-04-19T20:53:31.876Z,8.91
2023-04-19T20:55:58.372Z,8.90
2023-04-19T20:58:24.782Z,8.86
2023-04-19T21:00:51.325Z,8.81
2023-04-19T21:03:18.089Z,8.75
2023-04-19T21:05:44.731Z,8.69
2023-04-19T21:08:11.244Z,8.64
2023-04-19T21:10:37.792Z,8.62
2023-04-19T21:13:04.279Z,8.58
2023-04-19T21:15:30.688Z,8.53
2023-04-19T21:17:57.192Z,8.48
2023-04-19T21:20:23.694Z,8.42
2023-04-19T21:22:50.137Z,8.38
2023-04-19T21:25:16.644Z,8.36
2023-04-19T21:27:43.237Z,8.35
2023-04-19T21:30:10.742Z,8.29
2023-04-19T21:32:37.263Z,8.27
2023-04-19T21:35:04.038Z,8.20
2023-04-19T21:37:30.562Z,8.16
2023-04-19T21:39:57.727Z,8.11
2023-04-19T21:42:24.215Z,8.09
2023-04-19T21:44:50.648Z,8.02
2023-04-19T21:47:17.121Z,7.97
2023-04-19T21:49:43.584Z,7.98
2023-04-19T21:52:10.956Z,7.99
2023-04-19T21:54:37.394Z,7.94
2023-04-19T21:57:04.226Z,7.92
2023-04-19T21:59:31.009Z,7.85
2023-04-19T22:01:58.682Z,7.81
2023-04-19T22:04:25.294Z,7.75
2023-04-19T22:06:51.789Z,7.64
2023-04-19T22:09:18.279Z,7.58
2023-04-19T22:11:45.792Z,7.50
2023-04-19T22:14:12.804Z,7.41
2023-04-19T22:16:39.312Z,7.32
2023-04-19T22:19:05.823Z,7.26
2023-04-19T22:21:32.783Z,7.20
2023-04-19T22:23:59.288Z,7.24
2023-04-19T22:26:26.757Z,7.22
2023-04-19T22:28:53.982Z,7.17
2023-04-19T22:31:20.601Z,7.12
2023-04-19T22:33:47.062Z,7.06
2023-04-19T22:36:13.461Z,7.00
2023-04-19T22:38:39.921Z,7.00
2023-04-19T22:41:06.345Z,7.01
2023-04-19T22:43:33.195Z,6.95
2023-04-19T22:45:59.850Z,6.81
2023-04-19T22:48:28.031Z,6.80
2023-04-19T22:50:54.488Z,6.80
2023-04-19T22:53:21.012Z,6.82
2023-04-19T22:55:47.587Z,6.84
2023-04-19T22:58:13.998Z,6.88
2023-04-19T23:00:40.506Z,6.90
2023-04-19T23:03:07.020Z,6.90
2023-04-19T23:05:33.713Z,6.91
2023-04-19T23:08:02.671Z,6.87
2023-04-19T23:10:29.203Z,6.86
2023-04-19T23:12:56.343Z,6.84
2023-04-19T23:15:24.665Z,6.74
2023-04-19T23:17:51.856Z,6.72
2023-04-19T23:20:18.778Z,6.72
2023-04-19T23:22:45.353Z,6.74
2023-04-19T23:25:11.796Z,6.69
2023-04-19T23:27:38.339Z,6.64
2023-04-19T23:30:07.744Z,6.60
2023-04-19T23:32:34.366Z,6.53
2023-04-19T23:35:01.044Z,6.51
2023-04-19T23:37:27.474Z,6.48
2023-04-19T23:39:53.913Z,6.47
2023-04-19T23:42:20.509Z,6.45
2023-04-19T23:44:46.920Z,6.43
2023-04-19T23:47:13.370Z,6.44
2023-04-19T23:49:39.777Z,6.40
2023-04-19T23:52:06.481Z,6.36
2023-04-19T23:54:32.949Z,6.33
2023-04-19T23:56:59.636Z,6.31
2023-04-19T23:59:29.119Z,6.28
